New Jersey Responder — WBO8578 — position and weather

sailwx.info

Track history (hours):
 
Tides and Currents Weather Stations Pressure Air Temp Water Temp Dewpoint Dewpoint Depression Visibility Wind Speed Wind Dir Waves Ship Positions

New Jersey Responder

Owner: MARINE SPILL RESPONSE CORP, HERNDON, VA. More information available from US FCC via Universal Licensing System and Coast Guard Vessel Documentation Center.

Last reported at 2017-Oct-22 09:15 UTC. Time now 2017-Oct-22 10:17 UTC.
Position N 40°32' W 074°15'.

; draft 4 m.

Type: Pollution control. MMSI: 366594000.

Date/timePositionNaut miles runAvg speedWind from/ knotsBaromVisibWave heightAir tempDewpointWater temp
2017-Oct-22 09:15N 40°32' W 074°15'0 0.0
2017-Oct-22 09:00N 40°32' W 074°15'0 0.0
2017-Oct-22 08:27N 40°32' W 074°15'0 0.0
2017-Oct-22 07:45N 40°32' W 074°15'0 0.0
2017-Oct-22 07:21N 40°32' W 074°15'0 0.0
2017-Oct-22 06:57N 40°32' W 074°15'0 0.0
2017-Oct-22 06:21N 40°32' W 074°15'0 0.0
2017-Oct-22 05:57N 40°32' W 074°15'0 0.0
2017-Oct-22 05:27N 40°32' W 074°15'0 0.0
2017-Oct-22 05:00N 40°32' W 074°15'0 0.0
2017-Oct-22 04:24N 40°32' W 074°15'0 0.0
2017-Oct-22 04:00N 40°32' W 074°15'0 0.0
2017-Oct-22 02:33N 40°32' W 074°15'0 0.0
2017-Oct-22 02:12N 40°32' W 074°15'0 0.0
2017-Oct-21 14:48N 40°32' W 074°15'0 0.0
2017-Oct-21 14:27N 40°32' W 074°15'0 0.0
2017-Oct-20 07:27N 40°32' W 074°15'0 0.0
2017-Oct-20 06:57N 40°32' W 074°15'1 0.1
2017-Oct-19 16:15N 40°33' W 074°15'3 8.1
2017-Oct-19 15:55N 40°35' W 074°12'2 1.2
2017-Oct-19 14:09N 40°38' W 074°12'0 0.0
2017-Oct-19 14:00N 40°38' W 074°12'0 0.0
2017-Oct-19 13:31N 40°38' W 074°12'0 0.0
2017-Oct-19 12:56N 40°38' W 074°12'0 0.4
2017-Oct-19 12:30N 40°37' W 074°12'4 8.7
2017-Oct-19 12:00N 40°33' W 074°14'2 3.3
2017-Oct-19 11:30N 40°32' W 074°15'0 0.0
2017-Oct-19 11:00N 40°32' W 074°15'0 0.0
2017-Oct-19 09:52N 40°32' W 074°15'0 0.0
2017-Oct-19 09:28N 40°32' W 074°15'0 0.0
2017-Oct-19 07:49N 40°32' W 074°15'0 0.0
2017-Oct-18 06:16N 40°32' W 074°15'0 0.0
2017-Oct-18 05:58N 40°32' W 074°15'  
2017-Oct-15 10:34N 40°32' W 074°15'0 0.0
2017-Oct-15 08:22N 40°32' W 074°15'0 0.0
2017-Oct-15 07:55N 40°32' W 074°15'0 0.0
2017-Oct-15 06:46N 40°32' W 074°15'0 0.0
2017-Oct-15 04:37N 40°32' W 074°15'  
2017-Oct-12 17:36N 40°33' W 074°15'110.2
2017-Oct-12 17:30N 40°33' W 074°14'4 8.4
2017-Oct-12 16:59N 40°38' W 074°12'3 6.4
2017-Oct-12 16:30N 40°39' W 074°08'4 8.0
2017-Oct-12 16:00N 40°40' W 074°03'510.2
2017-Oct-12 15:30N 40°45' W 074°01'5 9.3
2017-Oct-12 15:00N 40°49' W 073°58'4 8.9
2017-Oct-12 14:30N 40°45' W 074°01'5 9.3
2017-Oct-12 14:00N 40°40' W 074°03'4 8.4
2017-Oct-12 13:30N 40°39' W 074°08'4 7.4
2017-Oct-12 12:59N 40°37' W 074°12'  
Track history (hours):
 
Tides and Currents Weather Stations Pressure Air Temp Water Temp Dewpoint Dewpoint Depression Visibility Wind Speed Wind Dir Waves Ship Positions

New Jersey Responder

Owner: MARINE SPILL RESPONSE CORP, HERNDON, VA. More information available from US FCC via Universal Licensing System and Coast Guard Vessel Documentation Center.

Last reported at 2017-Oct-22 09:15 UTC. Time now 2017-Oct-22 10:17 UTC.
Position N 40°32' W 074°15'.

; draft 4 m.

Type: Pollution control. MMSI: 366594000.

Date/timePositionNaut miles runAvg speedWind from/ knotsBaromVisibWave heightAir tempDewpointWater temp
2017-Oct-22 09:15N 40°32' W 074°15'0 0.0
2017-Oct-22 09:00N 40°32' W 074°15'0 0.0
2017-Oct-22 08:27N 40°32' W 074°15'0 0.0
2017-Oct-22 07:45N 40°32' W 074°15'0 0.0
2017-Oct-22 07:21N 40°32' W 074°15'0 0.0
2017-Oct-22 06:57N 40°32' W 074°15'0 0.0
2017-Oct-22 06:21N 40°32' W 074°15'0 0.0
2017-Oct-22 05:57N 40°32' W 074°15'0 0.0
2017-Oct-22 05:27N 40°32' W 074°15'0 0.0
2017-Oct-22 05:00N 40°32' W 074°15'0 0.0
2017-Oct-22 04:24N 40°32' W 074°15'0 0.0
2017-Oct-22 04:00N 40°32' W 074°15'0 0.0
2017-Oct-22 02:33N 40°32' W 074°15'0 0.0
2017-Oct-22 02:12N 40°32' W 074°15'0 0.0
2017-Oct-21 14:48N 40°32' W 074°15'0 0.0
2017-Oct-21 14:27N 40°32' W 074°15'0 0.0
2017-Oct-20 07:27N 40°32' W 074°15'0 0.0
2017-Oct-20 06:57N 40°32' W 074°15'1 0.1
2017-Oct-19 16:15N 40°33' W 074°15'3 8.1
2017-Oct-19 15:55N 40°35' W 074°12'2 1.2
2017-Oct-19 14:09N 40°38' W 074°12'0 0.0
2017-Oct-19 14:00N 40°38' W 074°12'0 0.0
2017-Oct-19 13:31N 40°38' W 074°12'0 0.0
2017-Oct-19 12:56N 40°38' W 074°12'0 0.4
2017-Oct-19 12:30N 40°37' W 074°12'4 8.7
2017-Oct-19 12:00N 40°33' W 074°14'2 3.3
2017-Oct-19 11:30N 40°32' W 074°15'0 0.0
2017-Oct-19 11:00N 40°32' W 074°15'0 0.0
2017-Oct-19 09:52N 40°32' W 074°15'0 0.0
2017-Oct-19 09:28N 40°32' W 074°15'0 0.0
2017-Oct-19 07:49N 40°32' W 074°15'0 0.0
2017-Oct-18 06:16N 40°32' W 074°15'0 0.0
2017-Oct-18 05:58N 40°32' W 074°15'  
2017-Oct-15 10:34N 40°32' W 074°15'0 0.0
2017-Oct-15 08:22N 40°32' W 074°15'0 0.0
2017-Oct-15 07:55N 40°32' W 074°15'0 0.0
2017-Oct-15 06:46N 40°32' W 074°15'0 0.0
2017-Oct-15 04:37N 40°32' W 074°15'  
2017-Oct-12 17:36N 40°33' W 074°15'110.2
2017-Oct-12 17:30N 40°33' W 074°14'4 8.4
2017-Oct-12 16:59N 40°38' W 074°12'3 6.4
2017-Oct-12 16:30N 40°39' W 074°08'4 8.0
2017-Oct-12 16:00N 40°40' W 074°03'510.2
2017-Oct-12 15:30N 40°45' W 074°01'5 9.3
2017-Oct-12 15:00N 40°49' W 073°58'4 8.9
2017-Oct-12 14:30N 40°45' W 074°01'5 9.3
2017-Oct-12 14:00N 40°40' W 074°03'4 8.4
2017-Oct-12 13:30N 40°39' W 074°08'4 7.4
2017-Oct-12 12:59N 40°37' W 074°12'  

Dump ship's entire track history